Time;durP1;ratioP1;P1;durP2;ratioP2;P2;SDS_P1;SDS_P2;PMS_P1;PMS_P2;Temp;Humidity;BMP_temperature;BMP_pressure;BME280_temperature;BME280_humidity;BME280_pressure;Samples;Min_cycle;Max_cycle;Signal;HPM_P1;HPM_P2
2022/10/12 00:01:50;;;;;;;44.80;17.12;;;;;;;8.11;100.00;99795.41;4292480;33;20034;-69
2022/10/12 00:04:17;;;;;;;41.78;15.68;;;;;;;8.07;100.00;99799.53;4294116;33;20063;-69
2022/10/12 00:06:43;;;;;;;44.63;18.33;;;;;;;8.30;100.00;99842.75;4293636;33;20048;-74
2022/10/12 00:09:09;;;;;;;41.53;18.35;;;;;;;8.28;100.00;99850.19;4292635;33;20037;-70
2022/10/12 00:11:36;;;;;;;42.90;18.12;;;;;;;7.88;100.00;99794.06;4294297;33;20079;-70
2022/10/12 00:14:03;;;;;;;43.05;18.95;;;;;;;8.18;100.00;99839.09;4294426;33;20059;-71
2022/10/12 00:16:30;;;;;;;37.70;17.67;;;;;;;7.86;100.00;99796.13;4293321;33;20098;-71
2022/10/12 00:18:57;;;;;;;45.53;17.95;;;;;;;7.90;100.00;99810.75;4292233;33;20413;-75
2022/10/12 00:21:25;;;;;;;49.85;17.70;;;;;;;8.10;100.00;99839.34;4291263;33;20041;-71
2022/10/12 00:23:51;;;;;;;43.60;19.23;;;;;;;8.14;100.00;99835.22;4294475;33;20456;-71
2022/10/12 00:26:21;;;;;;;40.83;18.45;;;;;;;8.03;100.00;99842.06;4293501;33;20371;-70
2022/10/12 00:28:48;;;;;;;47.58;18.75;;;;;;;7.50;100.00;99778.75;4303625;33;20197;-70
2022/10/12 00:31:19;;;;;;;43.70;16.73;;;;;;;7.68;100.00;99806.72;4303972;33;20041;-75
2022/10/12 00:33:47;;;;;;;41.17;18.67;;;;;;;7.61;100.00;99791.50;4300849;33;20310;-70
2022/10/12 00:36:16;;;;;;;38.05;17.70;;;;;;;7.94;100.00;99836.09;4311282;33;20390;-71
2022/10/12 00:38:43;;;;;;;47.30;18.35;;;;;;;7.69;100.00;99808.34;4310159;33;20036;-70
2022/10/12 00:41:10;;;;;;;42.47;17.00;;;;;;;7.85;100.00;99840.06;4309202;33;20037;-71
2022/10/12 00:43:40;;;;;;;45.42;17.62;;;;;;;7.83;100.00;99847.50;4311367;33;20063;-70
2022/10/12 00:46:38;;;;;;;43.20;19.37;;;;;;;7.77;100.00;99832.25;4325078;33;20042;-70
2022/10/12 00:49:18;;;;;;;35.55;17.67;;;;;;;7.93;100.00;99841.66;4323111;33;20082;-71
2022/10/12 00:51:50;;;;;;;45.20;18.37;;;;;;;7.85;100.00;99834.72;4322087;33;20131;-70
2022/10/12 00:54:21;;;;;;;44.35;17.70;;;;;;;7.61;100.00;99802.22;4315148;33;20099;-74
2022/10/12 00:56:51;;;;;;;38.17;18.33;;;;;;;7.81;100.00;99838.84;4318234;33;20096;-70
2022/10/12 00:59:22;;;;;;;33.45;15.63;;;;;;;7.59;100.00;99809.63;4277806;33;20095;-70
2022/10/12 01:01:49;;;;;;;35.80;15.70;;;;;;;7.70;100.00;99834.13;4278572;33;20101;-71
2022/10/12 01:04:16;;;;;;;49.20;20.70;;;;;;;7.75;100.00;99845.03;4278393;33;20376;-70
2022/10/12 01:06:43;;;;;;;46.25;16.92;;;;;;;7.69;100.00;99840.53;4309476;33;20678;-71
2022/10/12 01:09:09;;;;;;;42.92;16.95;;;;;;;7.70;100.00;99847.53;4311251;33;20033;-71
2022/10/12 01:11:35;;;;;;;55.55;18.08;;;;;;;7.59;100.00;99819.53;4295355;33;20032;-71
2022/10/12 01:14:02;;;;;;;43.25;15.68;;;;;;;7.77;100.00;99849.19;4294989;33;20037;-76
2022/10/12 01:16:45;;;;;;;35.08;15.32;;;;;;;7.40;100.00;99813.19;4288085;33;20094;-71
2022/10/12 01:19:30;;;;;;;44.90;16.80;;;;;;;7.60;100.00;99848.78;4271912;33;20037;-71
2022/10/12 01:22:06;;;;;;;42.97;16.37;;;;;;;7.68;100.00;99854.97;4260227;33;20060;-71
2022/10/12 01:24:43;;;;;;;45.10;17.83;;;;;;;7.34;100.00;99806.81;4249638;33;20050;-72
2022/10/12 01:27:24;;;;;;;41.55;16.77;;;;;;;7.50;100.00;99826.97;4253149;33;20030;-71
2022/10/12 01:30:04;;;;;;;35.80;15.07;;;;;;;7.71;100.00;99865.28;4277827;33;20049;-71
2022/10/12 01:32:40;;;;;;;36.83;15.40;;;;;;;7.64;100.00;99860.75;4281302;33;20375;-70
2022/10/12 01:35:59;;;;;;;38.00;15.10;;;;;;;7.45;100.00;99810.69;4280657;33;20041;-75
2022/10/12 01:38:44;;;;;;;39.03;13.88;;;;;;;7.77;100.00;99853.69;4260679;33;20128;-74
2022/10/12 01:41:20;;;;;;;45.17;15.27;;;;;;;7.66;100.00;99862.38;4279698;33;20056;-73
2022/10/12 01:43:49;;;;;;;33.70;14.87;;;;;;;7.60;100.00;99859.53;4280218;33;20044;-70
2022/10/12 01:46:19;;;;;;;38.25;14.65;;;;;;;7.56;100.00;99847.59;4277193;33;20049;-71
2022/10/12 01:48:52;;;;;;;40.28;14.02;;;;;;;7.67;100.00;99864.03;4281435;33;20398;-70
2022/10/12 01:51:34;;;;;;;29.08;12.70;;;;;;;7.55;100.00;99864.69;4266497;33;20521;-70
2022/10/12 01:54:37;;;;;;;34.08;14.27;;;;;;;7.58;100.00;99861.59;4265474;33;20026;-71
2022/10/12 01:57:18;;;;;;;34.28;14.40;;;;;;;7.51;100.00;99859.97;4265799;33;20071;-75
2022/10/12 02:00:03;;;;;;;35.63;14.57;;;;;;;7.35;100.00;99851.31;4223822;33;20457;-69
2022/10/12 02:02:43;;;;;;;32.35;15.88;;;;;;;7.35;100.00;99864.72;4209972;34;20329;-73
2022/10/12 02:05:40;;;;;;;34.65;14.35;;;;;;;7.46;100.00;99872.09;4210547;34;20182;-71
2022/10/12 02:08:24;;;;;;;36.75;13.40;;;;;;;7.23;100.00;99827.03;4216752;33;20454;-75
2022/10/12 02:11:18;;;;;;;32.15;14.27;;;;;;;7.45;100.00;99872.31;4251716;33;20058;-69
2022/10/12 02:13:49;;;;;;;27.50;13.48;;;;;;;7.35;100.00;99866.56;4254807;33;20456;-70
2022/10/12 02:16:19;;;;;;;35.45;13.82;;;;;;;7.36;100.00;99873.59;4209414;34;20111;-70
2022/10/12 02:18:50;;;;;;;38.65;14.52;;;;;;;7.38;100.00;99871.53;4252010;33;20377;-70
2022/10/12 02:21:21;;;;;;;34.60;14.10;;;;;;;7.06;100.00;99815.09;4264383;33;20442;-72
2022/10/12 02:23:50;;;;;;;34.40;13.93;;;;;;;7.03;100.00;99831.56;4252831;33;20050;-70
2022/10/12 02:26:20;;;;;;;36.88;13.48;;;;;;;7.17;100.00;99869.91;4252505;33;20068;-70
2022/10/12 02:28:48;;;;;;;40.08;14.30;;;;;;;6.89;100.00;99831.59;4247586;33;20103;-71
2022/10/12 02:31:26;;;;;;;41.13;14.25;;;;;;;7.14;100.00;99865.75;4260764;33;20025;-77
2022/10/12 02:34:07;;;;;;;28.20;13.62;;;;;;;6.86;100.00;99821.28;4260272;33;20065;-70
2022/10/12 02:36:42;;;;;;;31.83;13.70;;;;;;;6.80;100.00;99826.66;4253670;33;20046;-71
2022/10/12 02:39:20;;;;;;;34.80;13.98;;;;;;;7.07;100.00;99873.00;4235743;33;20089;-72
2022/10/12 02:41:49;;;;;;;36.55;14.55;;;;;;;6.91;100.00;99831.38;4238089;33;20115;-69
2022/10/12 02:44:27;;;;;;;31.33;13.05;;;;;;;7.22;100.00;99878.13;4239380;33;20058;-69
2022/10/12 02:46:56;;;;;;;29.58;13.85;;;;;;;7.16;100.00;99881.63;4249298;33;20384;-74
2022/10/12 02:49:26;;;;;;;34.65;14.52;;;;;;;7.13;100.00;99880.16;4247135;33;20054;-70
2022/10/12 02:51:54;;;;;;;33.90;15.18;;;;;;;7.18;100.00;99872.37;4238081;33;20034;-70
2022/10/12 02:54:20;;;;;;;36.45;13.07;;;;;;;7.27;100.00;99871.13;4250650;33;20060;-70
2022/10/12 02:56:47;;;;;;;37.83;13.60;;;;;;;6.87;100.00;99833.63;4249995;33;20232;-70
2022/10/12 02:59:15;;;;;;;37.70;15.93;;;;;;;7.10;100.00;99880.63;4268371;33;20238;-70
2022/10/12 03:01:42;;;;;;;29.20;13.88;;;;;;;7.09;100.00;99868.25;4281495;33;20063;-71
2022/10/12 03:04:09;;;;;;;30.15;13.85;;;;;;;6.99;100.00;99879.37;4280412;33;20076;-71
2022/10/12 03:06:35;;;;;;;37.22;14.20;;;;;;;6.87;100.00;99871.09;4293579;33;20086;-71
2022/10/12 03:09:01;;;;;;;28.17;13.35;;;;;;;6.63;100.00;99827.03;4308899;33;20021;-71
2022/10/12 03:11:28;;;;;;;35.50;14.35;;;;;;;6.60;100.00;99832.78;4308272;33;20080;-70
2022/10/12 03:13:55;;;;;;;32.72;12.80;;;;;;;6.84;100.00;99874.19;4323162;33;20171;-71
2022/10/12 03:16:21;;;;;;;42.88;14.15;;;;;;;6.83;100.00;99874.38;4309113;33;20420;-71
2022/10/12 03:18:49;;;;;;;41.53;14.60;;;;;;;6.63;100.00;99834.25;4307449;33;20430;-75
2022/10/12 03:21:15;;;;;;;33.30;13.38;;;;;;;6.90;100.00;99868.03;4322000;33;20054;-71
2022/10/12 03:23:42;;;;;;;30.55;14.13;;;;;;;6.98;100.00;99866.19;4315744;33;20036;-71
2022/10/12 03:26:09;;;;;;;29.08;13.10;;;;;;;7.01;100.00;99871.13;4312259;33;20125;-71
2022/10/12 03:28:35;;;;;;;31.73;14.13;;;;;;;6.61;100.00;99828.28;4321931;33;20036;-71
2022/10/12 03:31:02;;;;;;;37.38;15.10;;;;;;;6.77;100.00;99865.34;4289841;33;20392;-75
2022/10/12 03:33:29;;;;;;;29.37;14.70;;;;;;;6.75;100.00;99864.72;4282501;33;20360;-70
2022/10/12 03:35:55;;;;;;;37.33;14.43;;;;;;;6.48;100.00;99813.84;4294263;33;20025;-71
2022/10/12 03:38:21;;;;;;;32.95;13.85;;;;;;;6.75;100.00;99872.75;4288425;33;20029;-71
2022/10/12 03:40:48;;;;;;;39.25;14.50;;;;;;;6.47;100.00;99820.22;4278378;33;20041;-75
2022/10/12 03:43:14;;;;;;;38.78;14.05;;;;;;;6.44;100.00;99825.97;4277269;33;20044;-71
2022/10/12 03:45:41;;;;;;;45.70;16.10;;;;;;;6.67;100.00;99862.22;4279269;33;20055;-70
2022/10/12 03:48:08;;;;;;;38.50;14.77;;;;;;;6.53;100.00;99838.12;4299235;33;20160;-70
2022/10/12 03:50:35;;;;;;;34.95;14.02;;;;;;;6.68;100.00;99850.50;4304234;33;20045;-70
2022/10/12 03:53:03;;;;;;;44.03;16.08;;;;;;;6.34;100.00;99822.88;4280044;33;20064;-74
2022/10/12 03:55:30;;;;;;;39.20;15.00;;;;;;;6.53;100.00;99858.72;4283109;33;20079;-70
2022/10/12 03:57:57;;;;;;;39.70;15.85;;;;;;;6.35;100.00;99829.84;4294349;33;20067;-71
2022/10/12 04:00:24;;;;;;;35.55;14.55;;;;;;;6.62;100.00;99873.56;4293640;33;20176;-70
2022/10/12 04:02:50;;;;;;;39.58;15.50;;;;;;;6.69;100.00;99868.22;4317882;33;20032;-76
2022/10/12 04:05:16;;;;;;;41.40;15.60;;;;;;;6.80;100.00;99875.62;4324613;33;20051;-71
2022/10/12 04:07:43;;;;;;;35.60;15.18;;;;;;;6.56;100.00;99852.97;4326210;33;20037;-72
2022/10/12 04:10:09;;;;;;;36.55;15.10;;;;;;;6.61;100.00;99881.78;4326308;33;20152;-71
2022/10/12 04:12:35;;;;;;;47.55;15.85;;;;;;;6.52;100.00;99857.88;4318782;33;20054;-71
2022/10/12 04:15:03;;;;;;;35.75;13.77;;;;;;;6.42;100.00;99846.75;4309557;33;20052;-75
2022/10/12 04:17:29;;;;;;;41.17;16.27;;;;;;;6.44;100.00;99850.03;4310221;33;20033;-71
2022/10/12 04:19:56;;;;;;;36.03;14.52;;;;;;;6.58;100.00;99866.16;4310019;33;20041;-70
2022/10/12 04:22:25;;;;;;;38.10;14.73;;;;;;;6.38;100.00;99834.78;4311190;33;20471;-70
2022/10/12 04:24:51;;;;;;;39.35;16.33;;;;;;;6.35;100.00;99829.84;4310648;33;20032;-70
2022/10/12 04:27:18;;;;;;;31.90;16.17;;;;;;;6.42;100.00;99841.41;4307964;33;20065;-70
2022/10/12 04:29:44;;;;;;;36.58;15.40;;;;;;;6.63;100.00;99875.19;4310835;33;20150;-69
2022/10/12 04:32:10;;;;;;;37.60;15.40;;;;;;;6.36;100.00;99863.59;4310655;33;20025;-70
2022/10/12 04:34:37;;;;;;;32.90;15.38;;;;;;;6.42;100.00;99884.22;4311217;33;20051;-70
2022/10/12 04:37:03;;;;;;;39.53;15.30;;;;;;;6.39;100.00;99873.91;4309725;33;20115;-70
2022/10/12 04:39:30;;;;;;;51.67;16.62;;;;;;;6.39;100.00;99887.28;4298813;33;20044;-70
2022/10/12 04:41:56;;;;;;;36.70;15.75;;;;;;;6.05;100.00;99835.53;4319764;33;20040;-71
2022/10/12 04:44:23;;;;;;;35.97;15.45;;;;;;;6.10;100.00;99849.13;4313851;33;20465;-70
2022/10/12 04:46:49;;;;;;;36.35;15.35;;;;;;;6.40;100.00;99886.28;4322612;33;20079;-70
2022/10/12 04:49:15;;;;;;;35.38;14.70;;;;;;;6.34;100.00;99874.50;4309358;33;20115;-71
2022/10/12 04:51:42;;;;;;;39.78;16.37;;;;;;;6.27;100.00;99856.78;4310139;33;20041;-70
2022/10/12 04:54:09;;;;;;;34.83;15.63;;;;;;;6.51;100.00;99893.72;4309881;33;20071;-71
2022/10/12 04:56:36;;;;;;;35.70;16.02;;;;;;;6.53;100.00;99891.66;4281089;33;20030;-71
2022/10/12 04:59:03;;;;;;;30.42;15.32;;;;;;;6.46;100.00;99889.97;4281172;33;20089;-71
2022/10/12 05:01:29;;;;;;;42.20;16.70;;;;;;;6.41;100.00;99893.25;4278289;33;20037;-71
2022/10/12 05:03:55;;;;;;;31.92;15.63;;;;;;;6.20;100.00;99853.28;4281015;33;20085;-71
2022/10/12 05:06:22;;;;;;;45.40;17.17;;;;;;;6.23;100.00;99858.22;4281389;33;20084;-70
2022/10/12 05:08:48;;;;;;;39.53;15.88;;;;;;;6.51;100.00;99892.84;4281192;33;20084;-70
2022/10/12 05:11:15;;;;;;;40.50;16.35;;;;;;;6.51;100.00;99883.00;4279408;33;20063;-75
2022/10/12 05:13:41;;;;;;;37.85;15.50;;;;;;;6.47;100.00;99892.44;4281671;33;20076;-70
2022/10/12 05:16:08;;;;;;;38.58;15.88;;;;;;;6.43;100.00;99896.56;4281184;33;20041;-70
2022/10/12 05:18:34;;;;;;;40.58;16.50;;;;;;;6.37;100.00;99894.69;4265430;33;20034;-70
2022/10/12 05:21:00;;;;;;;38.28;15.95;;;;;;;6.11;100.00;99857.97;4269342;33;20042;-70
2022/10/12 05:23:27;;;;;;;46.15;14.75;;;;;;;6.35;100.00;99899.41;4279680;33;20030;-70
2022/10/12 05:25:56;;;;;;;40.05;16.87;;;;;;;5.96;100.00;99821.50;4280976;33;20079;-71
2022/10/12 05:28:23;;;;;;;39.05;15.70;;;;;;;6.55;100.00;99905.62;4268237;33;20093;-70
2022/10/12 05:30:51;;;;;;;40.10;15.60;;;;;;;6.57;100.00;99909.97;4268998;33;20055;-70
2022/10/12 05:33:18;;;;;;;34.38;16.30;;;;;;;6.69;100.00;99905.69;4279505;33;20029;-73
2022/10/12 05:35:47;;;;;;;40.65;16.27;;;;;;;6.30;100.00;99843.84;4280135;33;20075;-69
2022/10/12 05:38:14;;;;;;;39.95;17.73;;;;;;;6.73;100.00;99906.91;4266636;33;20029;-68
2022/10/12 05:40:40;;;;;;;46.95;16.90;;;;;;;6.66;100.00;99906.91;4259028;33;20041;-69
2022/10/12 05:43:08;;;;;;;41.92;17.02;;;;;;;6.30;100.00;99857.22;4259726;33;20154;-74
2022/10/12 05:45:37;;;;;;;39.53;15.82;;;;;;;6.65;100.00;99917.81;4257815;33;20060;-69
2022/10/12 05:48:04;;;;;;;34.33;16.02;;;;;;;6.72;100.00;99916.00;4258913;33;20169;-69
2022/10/12 05:50:31;;;;;;;49.35;15.43;;;;;;;6.86;100.00;99912.31;4271861;33;20063;-69
2022/10/12 05:52:59;;;;;;;47.33;17.40;;;;;;;6.88;100.00;99914.78;4265967;33;20107;-69
2022/10/12 05:55:27;;;;;;;33.25;17.27;;;;;;;6.72;100.00;99910.63;4265715;33;20049;-70
2022/10/12 05:57:53;;;;;;;46.80;16.45;;;;;;;6.58;100.00;99892.91;4265488;33;20063;-71
2022/10/12 06:00:20;;;;;;;49.95;16.73;;;;;;;6.55;100.00;99873.53;4264883;33;20520;-70
2022/10/12 06:02:48;;;;;;;43.70;16.08;;;;;;;6.61;100.00;99865.75;4239713;33;20095;-69
2022/10/12 06:05:16;;;;;;;41.88;17.02;;;;;;;7.03;100.00;99917.25;4246274;33;20508;-71
2022/10/12 06:07:44;;;;;;;59.92;22.17;;;;;;;7.01;100.00;99903.25;4255895;33;20127;-70
2022/10/12 06:10:15;;;;;;;68.03;23.25;;;;;;;7.11;100.00;99908.22;4276733;33;20057;-71
2022/10/12 06:12:42;;;;;;;46.80;19.98;;;;;;;7.52;100.00;99913.34;4279359;33;20042;-69
2022/10/12 06:15:09;;;;;;;59.72;24.20;;;;;;;7.81;100.00;99930.00;4277198;33;20076;-75
2022/10/12 06:17:42;;;;;;;54.58;23.98;;;;;;;8.06;100.00;99927.47;4280413;33;20049;-71
2022/10/12 06:20:09;;;;;;;45.33;20.23;;;;;;;8.10;100.00;99928.69;4276231;33;20483;-71
2022/10/12 06:22:36;;;;;;;50.12;21.50;;;;;;;7.93;100.00;99888.09;4274094;33;20104;-71
2022/10/12 06:25:04;;;;;;;55.28;20.75;;;;;;;8.22;100.00;99939.59;4265954;33;20076;-70
2022/10/12 06:27:33;;;;;;;62.20;22.75;;;;;;;8.44;100.00;99942.00;4267334;33;20049;-71
2022/10/12 06:30:01;;;;;;;58.47;21.50;;;;;;;8.46;100.00;99931.91;4266755;33;20045;-71
2022/10/12 06:32:27;;;;;;;49.58;20.35;;;;;;;8.64;100.00;99940.03;4266052;33;20075;-72
2022/10/12 06:34:54;;;;;;;62.13;23.95;;;;;;;8.60;100.00;99901.25;4290578;33;20028;-77
2022/10/12 06:37:20;;;;;;;56.08;21.60;;;;;;;9.04;100.00;99945.16;4294690;33;20832;-70
2022/10/12 06:39:47;;;;;;;53.22;20.83;;;;;;;9.12;100.00;99944.09;4295010;33;20168;-70
2022/10/12 06:42:13;;;;;;;78.10;22.65;;;;;;;9.28;100.00;99945.41;4294796;33;20091;-70
2022/10/12 06:44:44;;;;;;;61.50;21.77;;;;;;;9.10;100.00;99908.56;4293081;33;20038;-77
2022/10/12 06:47:11;;;;;;;47.15;20.95;;;;;;;9.33;100.00;99899.88;4292254;33;20455;-71
2022/10/12 06:49:37;;;;;;;55.63;21.67;;;;;;;9.68;100.00;99934.31;4303822;33;20117;-70
2022/10/12 06:52:04;;;;;;;55.78;20.83;;;;;;;9.56;100.00;99893.09;4309066;33;20045;-70
2022/10/12 06:54:30;;;;;;;66.53;20.77;;;;;;;9.80;100.00;99924.47;4308780;33;20078;-73
2022/10/12 06:56:56;;;;;;;62.10;20.92;;;;;;;9.80;100.00;99932.56;4307801;33;20066;-74
2022/10/12 06:59:23;;;;;;;50.00;19.45;;;;;;;9.99;100.00;99935.28;4306716;33;20040;-76
2022/10/12 07:01:50;;;;;;;58.87;19.75;;;;;;;10.12;100.00;99940.50;4300103;33;20061;-73
2022/10/12 07:04:18;;;;;;;56.30;18.73;;;;;;;10.20;100.00;99938.56;4302076;33;20075;-73
2022/10/12 07:06:45;;;;;;;69.47;18.77;;;;;;;10.02;100.00;99896.31;4306101;33;20054;-73
2022/10/12 07:09:11;;;;;;;47.00;18.55;;;;;;;10.32;100.00;99942.13;4310741;33;20370;-73
2022/10/12 07:11:37;;;;;;;53.35;18.83;;;;;;;10.46;100.00;99940.94;4306737;33;20037;-73
2022/10/12 07:14:04;;;;;;;40.15;17.70;;;;;;;10.59;100.00;99939.13;4308948;33;20426;-73
2022/10/12 07:16:30;;;;;;;58.33;17.80;;;;;;;10.65;100.00;99932.84;4310344;33;20051;-73
2022/10/12 07:18:56;;;;;;;40.88;17.60;;;;;;;10.87;100.00;99942.06;4293884;33;20062;-73
2022/10/12 07:21:23;;;;;;;46.33;18.65;;;;;;;11.08;100.00;99948.78;4294243;33;20074;-78
2022/10/12 07:23:49;;;;;;;46.37;17.98;;;;;;;11.15;100.00;99943.28;4293492;33;20110;-72
2022/10/12 07:26:16;;;;;;;50.78;19.12;;;;;;;11.23;100.00;99947.53;4294585;33;20054;-72
2022/10/12 07:28:42;;;;;;;49.47;19.23;;;;;;;11.41;100.00;99957.44;4295260;33;20052;-74
2022/10/12 07:31:09;;;;;;;51.15;16.70;;;;;;;11.58;100.00;99949.47;4294419;33;20085;-73
2022/10/12 07:33:40;;;;;;;43.47;15.90;;;;;;;11.66;100.00;99953.69;4292571;33;20183;-75
2022/10/12 07:36:07;;;;;;;34.92;15.00;;;;;;;11.78;100.00;99951.81;4292844;33;20075;-73
2022/10/12 07:38:33;;;;;;;34.70;13.82;;;;;;;11.57;100.00;99913.56;4296985;33;20041;-73
2022/10/12 07:41:02;;;;;;;32.88;11.27;;;;;;;11.85;100.00;99952.50;4297655;33;20051;-74
2022/10/12 07:43:30;;;;;;;21.73;8.40;;;;;;;11.93;100.00;99944.06;4297533;33;20446;-78
2022/10/12 07:45:57;;;;;;;37.75;10.90;;;;;;;11.96;100.00;99949.00;4295129;33;20416;-74
2022/10/12 07:48:24;;;;;;;18.87;8.05;;;;;;;12.05;100.00;99940.56;4297706;33;20086;-73
2022/10/12 07:50:50;;;;;;;30.40;9.60;;;;;;;12.22;100.00;99952.28;4296761;33;20145;-73
2022/10/12 07:53:17;;;;;;;33.40;8.68;;;;;;;12.11;100.00;99912.59;4295341;33;20427;-73
2022/10/12 07:55:43;;;;;;;15.82;8.02;;;;;;;12.25;100.00;99908.56;4294763;33;20037;-77
2022/10/12 07:58:11;;;;;;;30.40;7.95;;;;;;;12.49;100.00;99940.91;4298254;33;20540;-73
2022/10/12 08:00:38;;;;;;;30.75;7.60;;;;;;;12.53;100.00;99923.19;4298010;33;20078;-73
2022/10/12 08:03:06;;;;;;;21.45;6.62;;;;;;;12.02;100.00;99828.50;4295617;33;20057;-74
2022/10/12 08:05:34;;;;;;;29.30;9.43;;;;;;;12.62;100.00;99926.31;4299617;33;20055;-79
2022/10/12 08:08:01;;;;;;;19.27;6.47;;;;;;;12.94;100.00;99950.97;4323034;33;20028;-74
2022/10/12 08:10:28;;;;;;;18.55;6.50;;;;;;;12.94;100.00;99948.28;4325811;33;20060;-73
2022/10/12 08:12:55;;;;;;;36.08;7.70;;;;;;;12.95;100.00;99944.47;4325856;33;20033;-73
2022/10/12 08:15:22;;;;;;;27.05;7.15;;;;;;;13.05;100.00;99943.84;4311495;33;20080;-75
2022/10/12 08:17:50;;;;;;;28.67;5.75;;;;;;;13.16;100.00;99947.56;4307016;33;20087;-79
2022/10/12 08:20:17;;;;;;;17.80;6.15;;;;;;;13.09;100.00;99912.56;4310305;33;20049;-75
2022/10/12 08:22:43;;;;;;;36.92;6.95;;;;;;;13.22;100.00;99908.72;4309727;33;20035;-72
2022/10/12 08:25:11;;;;;;;30.52;7.37;;;;;;;13.33;100.00;99944.91;4310135;33;20060;-72
2022/10/12 08:27:38;;;;;;;22.73;6.60;;;;;;;13.49;100.00;99937.84;4310473;33;20037;-70
2022/10/12 08:30:05;;;;;;;15.38;5.22;;;;;;;13.23;100.00;99913.88;4307519;33;20043;-71
2022/10/12 08:32:32;;;;;;;19.23;4.93;;;;;;;13.39;100.00;99941.22;4310187;33;21008;-71
2022/10/12 08:35:06;;;;;;;15.68;4.95;;;;;;;13.34;100.00;99898.69;4296115;33;20037;-70
2022/10/12 08:37:33;;;;;;;17.30;6.65;;;;;;;13.72;100.00;99942.25;4295091;33;20112;-71
2022/10/12 08:39:59;;;;;;;16.05;4.75;;;;;;;13.41;100.00;99885.78;4278945;33;20103;-77
2022/10/12 08:42:44;;;;;;;14.48;4.40;;;;;;;13.73;100.00;99954.72;4278659;33;20058;-73
2022/10/12 08:45:14;;;;;;;12.45;4.25;;;;;;;13.78;100.00;99947.47;4279090;33;20130;-72
2022/10/12 08:48:20;;;;;;;20.88;6.22;;;;;;;13.81;100.00;99955.09;4277984;33;20075;-72
2022/10/12 08:51:01;;;;;;;7.00;3.58;;;;;;;14.14;100.00;99949.88;4276235;33;20485;-70
2022/10/12 08:53:51;;;;;;;10.25;2.83;;;;;;;14.06;100.00;99915.94;4287533;33;20037;-72
2022/10/12 08:56:20;;;;;;;12.63;4.03;;;;;;;14.28;100.00;99950.31;4295775;33;20037;-71
2022/10/12 08:58:49;;;;;;;10.02;2.53;;;;;;;14.04;100.00;99911.81;4310335;33;20049;-77
2022/10/12 09:01:38;;;;;;;8.73;3.03;;;;;;;14.11;100.00;99902.44;4310754;33;20053;-71
2022/10/12 09:04:13;;;;;;;12.40;2.58;;;;;;;14.39;100.00;99957.53;4300776;33;20029;-70
2022/10/12 09:06:57;;;;;;;6.20;2.37;;;;;;;14.53;100.00;99947.94;4316179;33;20063;-70
2022/10/12 09:09:32;;;;;;;18.58;7.60;;;;;;;14.11;100.00;99864.53;4324716;33;20184;-73
2022/10/12 09:12:42;;;;;;;16.75;2.83;;;;;;;14.82;100.00;99950.44;4323460;33;20062;-77
2022/10/12 09:15:24;;;;;;;5.32;2.10;;;;;;;14.92;100.00;99944.31;4321759;33;20048;-72
2022/10/12 09:17:55;;;;;;;4.57;1.87;;;;;;;14.80;100.00;99940.94;4323056;33;20074;-70
2022/10/12 09:20:34;;;;;;;5.20;2.05;;;;;;;14.68;100.00;99916.69;4338343;33;20109;-70
2022/10/12 09:23:26;;;;;;;12.07;2.50;;;;;;;14.86;100.00;99940.72;4338743;33;20423;-70
2022/10/12 09:25:59;;;;;;;15.02;2.40;;;;;;;14.68;100.00;99938.38;4335829;33;20063;-70
2022/10/12 09:28:33;;;;;;;;;;;;;;;15.18;96.47;99934.50;4338256;33;20066;-71
2022/10/12 09:30:59;;;;;;;8.05;1.92;;;;;;;15.33;95.68;99943.84;4333285;33;19940;-71
2022/10/12 09:33:36;;;;;;;4.47;1.60;;;;;;;14.91;94.91;99944.56;4339930;33;20398;-70
2022/10/12 09:36:08;;;;;;;7.70;2.12;;;;;;;15.15;96.16;99937.72;4337804;33;20429;-70
2022/10/12 09:38:37;;;;;;;8.67;2.00;;;;;;;15.36;95.10;99943.34;4321398;33;20154;-70
2022/10/12 09:41:04;;;;;;;14.48;2.40;;;;;;;15.32;90.39;99921.34;4323301;33;20201;-70
2022/10/12 09:43:31;;;;;;;10.85;3.33;;;;;;;15.43;87.34;99944.75;4324992;33;20032;-70
2022/10/12 09:46:05;;;;;;;10.63;3.03;;;;;;;15.68;92.39;99950.63;4324784;33;20044;-70
2022/10/12 09:48:32;;;;;;;13.43;3.35;;;;;;;15.68;94.11;99945.19;4323870;33;20062;-70
2022/10/12 09:51:03;;;;;;;10.07;3.70;;;;;;;16.00;93.66;99952.50;4318735;33;20488;-71
2022/10/12 09:53:46;;;;;;;13.23;4.10;;;;;;;15.98;87.67;99956.28;4306824;33;20041;-71
2022/10/12 09:56:30;;;;;;;10.10;3.45;;;;;;;15.75;87.11;99892.31;4291331;33;20029;-71
2022/10/12 09:59:02;;;;;;;8.30;3.00;;;;;;;16.29;84.99;99956.44;4295613;33;20375;-77
2022/10/12 10:01:37;;;;;;;7.10;2.47;;;;;;;16.12;81.16;99920.50;4293981;33;20056;-71
2022/10/12 10:04:12;;;;;;;8.43;2.50;;;;;;;16.06;75.94;99946.00;4294530;33;20055;-74
2022/10/12 10:06:42;;;;;;;9.88;2.47;;;;;;;16.25;79.33;99949.91;4295904;33;20479;-70
2022/10/12 10:09:32;;;;;;;5.32;1.40;;;;;;;15.91;75.48;99917.69;4298769;33;20100;-70
2022/10/12 10:12:23;;;;;;;9.75;2.45;;;;;;;16.23;74.14;99962.94;4293753;33;20048;-71
2022/10/12 10:14:55;;;;;;;7.07;2.03;;;;;;;16.27;77.79;99955.87;4293451;33;20082;-70
2022/10/12 10:17:27;;;;;;;16.02;1.80;;;;;;;16.21;76.91;99910.78;4294165;33;20379;-76
2022/10/12 10:19:57;;;;;;;7.43;2.08;;;;;;;16.69;74.50;99949.53;4294068;33;20053;-71
2022/10/12 10:22:25;;;;;;;2.85;1.77;;;;;;;16.56;69.85;99930.16;4270067;33;20180;-71
2022/10/12 10:24:53;;;;;;;11.32;2.12;;;;;;;16.40;66.51;99897.53;4266657;33;20055;-70
2022/10/12 10:27:36;;;;;;;6.12;2.00;;;;;;;16.61;68.09;99952.78;4271764;33;20069;-69
2022/10/12 10:30:16;;;;;;;10.25;2.45;;;;;;;16.83;70.39;99954.44;4281640;33;20065;-70
2022/10/12 10:32:43;;;;;;;10.02;3.12;;;;;;;17.03;68.12;99951.78;4280956;33;20076;-72
2022/10/12 10:35:10;;;;;;;15.57;4.28;;;;;;;16.88;67.49;99906.34;4280890;33;20050;-69
2022/10/12 10:37:42;;;;;;;6.45;2.10;;;;;;;17.17;64.19;99948.56;4280858;33;20448;-70
2022/10/12 10:40:24;;;;;;;8.02;2.33;;;;;;;17.24;66.69;99943.66;4284872;33;20123;-71
2022/10/12 10:42:56;;;;;;;10.57;2.70;;;;;;;17.26;70.81;99936.03;4293337;33;20409;-75
2022/10/12 10:45:28;;;;;;;7.43;2.20;;;;;;;17.34;71.05;99935.50;4293687;33;20117;-72
2022/10/12 10:48:00;;;;;;;6.62;1.90;;;;;;;17.11;63.50;99895.22;4268158;33;20100;-71
2022/10/12 10:50:36;;;;;;;5.03;2.20;;;;;;;17.35;64.56;99933.59;4265000;33;20059;-79
2022/10/12 10:53:17;;;;;;;5.18;2.10;;;;;;;17.63;64.16;99940.37;4276035;33;20455;-72
2022/10/12 10:56:07;;;;;;;6.97;2.50;;;;;;;18.03;62.45;99938.69;4295430;33;20059;-72
2022/10/12 10:58:48;;;;;;;5.00;2.50;;;;;;;18.20;60.23;99926.63;4294991;33;20096;-72
2022/10/12 11:01:31;;;;;;;9.40;2.42;;;;;;;18.27;56.64;99921.72;4295113;33;20051;-72
2022/10/12 11:04:15;;;;;;;7.43;2.45;;;;;;;18.49;58.11;99922.16;4292226;33;20091;-73
2022/10/12 11:06:53;;;;;;;11.07;2.47;;;;;;;19.00;56.75;99928.41;4269701;33;20162;-72
2022/10/12 11:09:33;;;;;;;7.80;2.58;;;;;;;18.35;55.73;99896.59;4280903;33;20060;-73
2022/10/12 11:12:25;;;;;;;9.05;2.35;;;;;;;17.92;60.61;99920.75;4279798;33;20053;-74
2022/10/12 11:14:57;;;;;;;5.20;1.90;;;;;;;17.44;63.79;99882.97;4279583;33;20169;-72
2022/10/12 11:17:26;;;;;;;;;;;;;;;17.12;63.99;99899.56;4270744;33;20407;-72
2022/10/12 11:20:11;;;;;;;8.02;2.03;;;;;;;17.01;64.10;99925.97;4288707;33;19948;-72
2022/10/12 11:22:49;;;;;;;8.13;2.40;;;;;;;16.95;68.01;99916.16;4292883;33;20033;-73
2022/10/12 11:25:24;;;;;;;10.30;2.30;;;;;;;16.94;70.42;99923.47;4280008;33;20099;-72
2022/10/12 11:27:51;;;;;;;8.75;2.70;;;;;;;16.93;70.08;99916.44;4284018;33;20051;-72
2022/10/12 11:30:21;;;;;;;6.70;2.53;;;;;;;16.84;69.89;99913.38;4281750;33;20045;-72
2022/10/12 11:32:53;;;;;;;9.23;2.37;;;;;;;16.85;69.53;99914.22;4278380;33;20033;-78
2022/10/12 11:35:30;;;;;;;8.15;2.12;;;;;;;17.08;73.88;99909.37;4280124;33;20085;-71
2022/10/12 11:38:00;;;;;;;6.55;2.15;;;;;;;17.16;68.39;99914.25;4287453;33;20034;-71